Terminal Aerodrome Forecast
Issued by NWS Hastings, NE

Home | Current Version | Previous Version | Text Only | Print | Product List | Glossary On
Versions: 1 2 3 4 5 6 7 8 9 10 11 12 13 14 15
000
FTUS43 KGID 271120
TAFGRI
TAF
KGRI 271120Z 2712/2812 VRB05KT P6SM FEW070 FEW150
     FM271700 12007KT P6SM BKN090
     FM272100 13010KT P6SM VCSH BKN080
     FM280000 12008KT P6SM -SHRA OVC060
     FM280400 10008KT 6SM -SHRA OVC020
     FM280800 06010KT 6SM SHRA OVC010=

USA.gov is the U.S. government's official web portal to all federal, state and local government web resources and services.